Time;durP1;ratioP1;P1;durP2;ratioP2;P2;SDS_P1;SDS_P2;PMS_P1;PMS_P2;Temp;Humidity;BMP_temperature;BMP_pressure;BME280_temperature;BME280_humidity;BME280_pressure;Samples;Min_cycle;Max_cycle;Signal;HPM_P1;HPM_P2
2021/11/20 00:02:15;;;;;;;49.75;28.17;;;11.60;77.10;;;;;;5012528;28;20439;-76
2021/11/20 00:04:43;;;;;;;46.75;27.20;;;11.60;77.90;;;;;;5013809;28;20479;-77
2021/11/20 00:07:09;;;;;;;47.60;26.85;;;11.60;77.50;;;;;;5014374;28;20482;-78
2021/11/20 00:09:34;;;;;;;53.50;28.00;;;11.60;75.80;;;;;;5014574;28;20385;-76
2021/11/20 00:12:08;;;;;;;48.03;27.85;;;11.60;76.70;;;;;;5014246;28;20886;-76
2021/11/20 00:14:34;;;;;;;47.58;26.83;;;11.60;75.90;;;;;;5013835;28;20396;-77
2021/11/20 00:17:01;;;;;;;46.30;26.53;;;11.70;73.70;;;;;;5031406;28;20527;-76
2021/11/20 00:19:29;;;;;;;44.70;26.90;;;11.70;75.10;;;;;;5014967;28;20543;-75
2021/11/20 00:22:11;;;;;;;48.90;28.00;;;11.60;76.20;;;;;;5016025;28;20440;-76
2021/11/20 00:24:50;;;;;;;48.00;26.73;;;11.60;76.70;;;;;;5020545;28;20431;-73
2021/11/20 00:27:22;;;;;;;46.20;27.88;;;11.60;75.00;;;;;;5016247;28;20741;-77
2021/11/20 00:30:01;;;;;;;45.72;27.08;;;11.50;77.00;;;;;;5016420;28;20388;-76
2021/11/20 00:32:31;;;;;;;49.30;28.88;;;11.50;77.90;;;;;;5015036;28;20388;-76
2021/11/20 00:35:00;;;;;;;50.90;28.40;;;11.60;77.10;;;;;;5014485;28;20870;-76
2021/11/20 00:37:26;;;;;;;55.80;29.52;;;11.60;76.50;;;;;;5014470;28;20476;-75
2021/11/20 00:39:52;;;;;;;50.83;28.90;;;11.60;76.50;;;;;;5014556;28;20408;-75
2021/11/20 00:42:18;;;;;;;54.83;29.17;;;11.50;77.50;;;;;;5014301;28;20882;-75
2021/11/20 00:44:45;;;;;;;54.50;30.23;;;11.40;78.80;;;;;;5013803;28;20935;-76
2021/11/20 00:47:10;;;;;;;53.92;30.73;;;11.40;79.20;;;;;;5013625;28;20439;-76
2021/11/20 00:49:37;;;;;;;52.58;30.13;;;11.50;77.60;;;;;;5014627;28;20397;-76
2021/11/20 00:52:04;;;;;;;54.67;31.17;;;11.50;77.10;;;;;;5014210;28;20389;-76
2021/11/20 00:54:30;;;;;;;53.15;29.20;;;11.60;76.90;;;;;;5016051;28;20588;-76
2021/11/20 00:56:56;;;;;;;56.60;30.53;;;11.60;76.20;;;;;;5014966;28;20439;-76
2021/11/20 00:59:22;;;;;;;55.70;30.63;;;11.50;76.80;;;;;;5013842;28;20432;-76
2021/11/20 01:01:54;;;;;;;60.33;32.45;;;11.60;75.10;;;;;;5016637;28;20427;-78
2021/11/20 01:04:21;;;;;;;55.70;31.42;;;11.70;74.60;;;;;;5014914;28;20423;-75
2021/11/20 01:06:48;;;;;;;56.58;32.50;;;11.60;75.60;;;;;;5014093;28;20458;-76
2021/11/20 01:09:18;;;;;;;56.05;32.42;;;11.60;75.30;;;;;;5017066;28;20404;-77
2021/11/20 01:11:52;;;;;;;56.28;31.40;;;11.50;76.40;;;;;;5017687;28;20456;-79
2021/11/20 01:14:20;;;;;;;55.77;31.00;;;11.60;75.70;;;;;;5035107;28;20411;-78
2021/11/20 01:16:48;;;;;;;60.55;33.90;;;11.50;77.40;;;;;;5018334;28;20427;-79
2021/11/20 01:19:15;;;;;;;55.13;31.27;;;11.50;77.90;;;;;;5017484;28;20397;-78
2021/11/20 01:21:41;;;;;;;55.50;32.95;;;11.60;75.00;;;;;;5032693;28;20423;-76
2021/11/20 01:24:09;;;;;;;63.28;32.75;;;11.60;75.50;;;;;;5017241;28;20388;-77
2021/11/20 01:26:36;;;;;;;52.90;32.05;;;11.50;75.60;;;;;;5018438;28;20409;-77
2021/11/20 01:29:04;;;;;;;55.35;31.70;;;11.60;74.90;;;;;;5017913;28;20413;-77
2021/11/20 01:31:32;;;;;;;60.42;33.03;;;11.70;73.00;;;;;;5019767;28;20877;-78
2021/11/20 01:33:58;;;;;;;64.83;34.03;;;11.60;73.00;;;;;;5022032;28;20444;-77
2021/11/20 01:36:28;;;;;;;64.10;34.23;;;11.50;73.80;;;;;;5028578;28;20443;-76
2021/11/20 01:38:56;;;;;;;60.50;34.03;;;11.50;74.00;;;;;;5022418;28;20388;-76
2021/11/20 01:41:25;;;;;;;56.40;31.65;;;11.50;74.90;;;;;;5005712;28;20390;-76
2021/11/20 01:43:53;;;;;;;59.92;32.25;;;11.50;74.50;;;;;;5009566;28;20451;-75
2021/11/20 01:46:24;;;;;;;54.17;32.07;;;11.50;73.10;;;;;;5026370;28;20381;-77
2021/11/20 01:48:56;;;;;;;60.20;33.85;;;11.60;71.80;;;;;;5014496;28;20396;-77
2021/11/20 01:51:53;;;;;;;59.33;31.38;;;11.60;71.20;;;;;;5016906;28;20396;-77
2021/11/20 01:54:36;;;;;;;60.50;32.45;;;11.60;72.50;;;;;;5021469;28;20412;-78
2021/11/20 01:57:43;;;;;;;55.10;32.28;;;11.60;70.90;;;;;;5016712;28;20774;-76
2021/11/20 02:00:31;;;;;;;59.50;32.90;;;11.70;67.60;;;;;;4938337;29;20445;-77
2021/11/20 02:03:18;;;;;;;59.53;32.72;;;11.70;68.00;;;;;;4943652;29;20411;-77
2021/11/20 02:06:06;;;;;;;57.20;32.30;;;11.50;70.60;;;;;;4981078;28;20440;-77
2021/11/20 02:08:38;;;;;;;65.40;33.73;;;11.50;70.80;;;;;;5032690;28;20416;-76
2021/11/20 02:11:12;;;;;;;53.87;32.73;;;11.50;71.90;;;;;;5020016;28;20389;-78
2021/11/20 02:13:38;;;;;;;62.17;32.85;;;11.40;72.20;;;;;;5027523;28;20393;-77
2021/11/20 02:16:11;;;;;;;58.35;32.88;;;11.40;72.20;;;;;;5027290;28;20408;-76
2021/11/20 02:18:41;;;;;;;53.23;31.33;;;11.40;70.50;;;;;;5029009;28;20385;-77
2021/11/20 02:21:13;;;;;;;53.88;30.75;;;11.50;68.40;;;;;;5027991;28;20388;-76
2021/11/20 02:23:38;;;;;;;55.92;32.17;;;11.70;68.20;;;;;;5043065;28;20458;-76
2021/11/20 02:26:04;;;;;;;55.78;30.65;;;11.60;67.20;;;;;;5035760;28;20400;-77
2021/11/20 02:28:31;;;;;;;53.77;31.80;;;11.60;67.70;;;;;;5019920;28;20413;-77
2021/11/20 02:30:58;;;;;;;56.90;31.33;;;11.60;67.80;;;;;;5024248;28;20397;-78
2021/11/20 02:33:37;;;;;;;56.15;30.52;;;11.50;69.80;;;;;;5025206;28;20371;-77
2021/11/20 02:36:08;;;;;;;51.92;30.55;;;11.50;67.20;;;;;;5018816;28;20447;-77
2021/11/20 02:38:58;;;;;;;53.03;30.33;;;11.50;67.20;;;;;;5020536;28;20393;-77
2021/11/20 02:41:26;;;;;;;56.08;28.20;;;11.50;67.00;;;;;;4998207;28;20484;-79
2021/11/20 02:43:53;;;;;;;54.50;28.58;;;11.50;66.80;;;;;;5004626;28;20416;-76
2021/11/20 02:46:21;;;;;;;49.90;28.55;;;11.60;63.60;;;;;;5016976;28;20393;-75
2021/11/20 02:48:47;;;;;;;53.00;28.85;;;11.70;61.10;;;;;;5029301;28;20432;-76
2021/11/20 02:51:16;;;;;;;47.17;28.98;;;11.60;61.20;;;;;;5016983;28;20403;-76
2021/11/20 02:54:01;;;;;;;46.80;27.55;;;11.70;60.20;;;;;;5005910;28;20440;-76
2021/11/20 02:56:32;;;;;;;54.60;30.27;;;11.70;60.50;;;;;;4993602;28;20391;-77
2021/11/20 02:58:58;;;;;;;54.95;31.23;;;11.70;61.30;;;;;;4996135;28;20453;-79
2021/11/20 03:01:27;;;;;;;61.50;31.92;;;11.70;62.10;;;;;;5014961;28;20455;-75
2021/11/20 03:03:53;;;;;;;54.75;32.83;;;11.60;63.10;;;;;;5026727;28;20460;-75
2021/11/20 03:06:19;;;;;;;56.35;32.72;;;11.50;65.00;;;;;;5023667;28;20492;-77
2021/11/20 03:08:45;;;;;;;60.37;34.83;;;11.50;66.40;;;;;;5011567;28;20421;-75
2021/11/20 03:11:13;;;;;;;65.90;34.27;;;11.50;66.50;;;;;;5015800;28;20463;-76
2021/11/20 03:13:41;;;;;;;68.30;34.70;;;11.60;65.30;;;;;;5013777;28;20482;-76
2021/11/20 03:16:07;;;;;;;70.97;36.00;;;11.50;67.10;;;;;;5014826;28;20753;-76
2021/11/20 03:18:33;;;;;;;72.85;35.67;;;11.50;67.40;;;;;;5011464;28;20397;-75
2021/11/20 03:20:59;;;;;;;72.95;35.05;;;11.50;68.70;;;;;;5003618;28;20762;-76
2021/11/20 03:23:29;;;;;;;78.93;37.95;;;11.40;69.20;;;;;;5011205;28;20401;-76
2021/11/20 03:25:54;;;;;;;80.55;38.42;;;11.50;69.30;;;;;;5010871;28;20428;-75
2021/11/20 03:28:20;;;;;;;82.07;37.57;;;11.50;68.30;;;;;;5011039;28;20415;-74
2021/11/20 03:30:46;;;;;;;74.00;38.43;;;11.50;69.20;;;;;;5009621;28;20393;-76
2021/11/20 03:33:12;;;;;;;76.00;37.58;;;11.50;68.00;;;;;;5009552;28;20425;-74
2021/11/20 03:35:39;;;;;;;76.18;39.05;;;11.50;68.20;;;;;;5016188;28;20388;-76
2021/11/20 03:38:05;;;;;;;73.57;38.13;;;11.50;68.60;;;;;;5034715;28;20396;-77
2021/11/20 03:40:31;;;;;;;69.13;36.13;;;11.40;70.60;;;;;;5035295;28;20380;-77
2021/11/20 03:42:58;;;;;;;71.97;37.03;;;11.40;70.10;;;;;;5029082;28;20427;-77
2021/11/20 03:45:27;;;;;;;75.65;39.20;;;11.50;68.40;;;;;;5011497;28;20404;-76
2021/11/20 03:47:52;;;;;;;79.53;38.75;;;11.40;69.50;;;;;;5027019;28;20507;-75
2021/11/20 03:50:18;;;;;;;77.57;37.53;;;11.50;69.70;;;;;;5026238;28;20920;-76
2021/11/20 03:52:46;;;;;;;80.43;38.13;;;11.50;68.90;;;;;;5019565;28;20483;-76
2021/11/20 03:55:16;;;;;;;77.82;37.83;;;11.50;70.70;;;;;;5030553;28;20396;-76
2021/11/20 03:57:42;;;;;;;79.50;38.78;;;11.50;71.70;;;;;;5022798;28;20392;-76
2021/11/20 04:00:11;;;;;;;77.00;39.05;;;11.50;71.20;;;;;;5014979;28;20406;-76
2021/11/20 04:02:37;;;;;;;81.45;37.40;;;11.60;71.80;;;;;;5014479;28;20504;-75
2021/11/20 04:05:05;;;;;;;81.55;37.13;;;11.60;71.50;;;;;;5014766;28;20593;-76
2021/11/20 04:07:31;;;;;;;77.03;37.67;;;11.60;71.10;;;;;;5014836;28;20495;-76
2021/11/20 04:09:56;;;;;;;80.37;38.93;;;11.50;71.00;;;;;;5014793;28;20476;-75
2021/11/20 04:12:22;;;;;;;81.00;39.20;;;11.50;72.10;;;;;;5013585;28;20403;-76
2021/11/20 04:14:48;;;;;;;77.53;38.50;;;11.40;74.60;;;;;;5014974;28;20393;-74
2021/11/20 04:17:13;;;;;;;84.43;39.37;;;11.40;74.20;;;;;;5015500;28;20419;-75
2021/11/20 04:19:39;;;;;;;81.73;38.20;;;11.40;74.40;;;;;;5014429;28;20412;-75
2021/11/20 04:22:05;;;;;;;78.72;37.33;;;11.40;74.60;;;;;;5014475;28;20400;-76
2021/11/20 04:24:32;;;;;;;84.03;38.20;;;11.40;74.70;;;;;;5014160;28;20508;-76
2021/11/20 04:26:57;;;;;;;80.32;38.15;;;11.30;75.90;;;;;;5014288;28;20436;-76
2021/11/20 04:29:23;;;;;;;85.73;37.33;;;11.30;76.80;;;;;;5014445;28;20419;-75
2021/11/20 04:31:49;;;;;;;78.30;37.80;;;11.20;76.50;;;;;;5014429;28;21048;-75
2021/11/20 04:34:15;;;;;;;74.47;36.30;;;11.30;76.10;;;;;;5014630;28;20381;-75
2021/11/20 04:36:41;;;;;;;80.93;36.92;;;11.30;75.50;;;;;;5014420;28;20466;-76
2021/11/20 04:39:07;;;;;;;83.40;37.07;;;11.30;75.30;;;;;;5012581;28;20898;-75
2021/11/20 04:41:32;;;;;;;76.70;37.27;;;11.30;73.40;;;;;;5014001;28;20880;-76
2021/11/20 04:43:58;;;;;;;78.88;34.88;;;11.30;74.40;;;;;;5014326;28;20916;-75
2021/11/20 04:46:25;;;;;;;85.28;37.03;;;11.40;72.30;;;;;;5014095;28;20400;-75
2021/11/20 04:48:51;;;;;;;77.23;35.50;;;11.50;70.00;;;;;;4998248;28;20393;-76
2021/11/20 04:51:19;;;;;;;78.63;36.40;;;11.40;71.60;;;;;;5012872;28;20394;-76
2021/11/20 04:53:46;;;;;;;71.72;35.08;;;11.60;69.80;;;;;;5013118;28;20396;-75
2021/11/20 04:56:15;;;;;;;83.60;35.80;;;11.60;68.20;;;;;;5013863;28;20444;-75
2021/11/20 04:58:41;;;;;;;74.53;35.83;;;11.50;68.70;;;;;;5013684;28;20482;-76
2021/11/20 05:01:08;;;;;;;76.57;36.17;;;11.50;70.20;;;;;;5014477;28;20424;-77
2021/11/20 05:03:34;;;;;;;83.13;36.10;;;11.50;69.00;;;;;;5013479;28;20399;-75
2021/11/20 05:06:00;;;;;;;70.78;35.08;;;11.40;70.40;;;;;;5013127;28;20389;-75
2021/11/20 05:08:26;;;;;;;74.63;35.13;;;11.40;71.10;;;;;;4995534;28;20410;-75
2021/11/20 05:10:53;;;;;;;77.93;36.00;;;11.40;69.20;;;;;;4994169;28;21116;-75
2021/11/20 05:13:21;;;;;;;72.65;35.47;;;11.40;68.10;;;;;;4996402;28;20492;-75
2021/11/20 05:15:52;;;;;;;75.57;35.03;;;11.40;68.50;;;;;;5003331;28;20405;-74
2021/11/20 05:18:17;;;;;;;69.22;33.40;;;11.30;67.90;;;;;;5014602;28;20392;-78
2021/11/20 05:20:45;;;;;;;75.45;33.58;;;11.40;67.10;;;;;;5011948;28;20392;-75
2021/11/20 05:23:11;;;;;;;68.07;33.80;;;11.50;66.40;;;;;;5013856;28;20404;-76
2021/11/20 05:25:37;;;;;;;72.95;33.95;;;11.40;64.90;;;;;;5014237;28;20397;-77
2021/11/20 05:28:03;;;;;;;70.75;33.33;;;11.40;65.00;;;;;;5013903;28;20774;-77
2021/11/20 05:30:36;;;;;;;76.78;33.20;;;11.30;65.20;;;;;;5031116;28;20448;-76
2021/11/20 05:33:07;;;;;;;70.70;33.85;;;11.40;65.10;;;;;;5019889;28;20385;-77
2021/11/20 05:35:33;;;;;;;71.20;34.20;;;11.30;66.50;;;;;;5016189;28;20432;-79
2021/11/20 05:37:58;;;;;;;68.00;32.35;;;11.30;67.00;;;;;;5015919;28;20435;-76
2021/11/20 05:40:24;;;;;;;69.10;31.80;;;11.20;67.20;;;;;;5015279;28;20413;-77
2021/11/20 05:42:53;;;;;;;73.97;33.17;;;11.20;68.30;;;;;;5013771;28;20487;-78
2021/11/20 05:45:22;;;;;;;69.32;33.63;;;11.20;67.60;;;;;;5012899;28;20968;-76
2021/11/20 05:47:49;;;;;;;73.30;32.70;;;11.20;65.70;;;;;;5012888;28;20412;-77
2021/11/20 05:50:17;;;;;;;67.47;32.28;;;11.20;66.60;;;;;;5013037;28;20385;-76
2021/11/20 05:52:44;;;;;;;69.38;32.83;;;11.20;67.20;;;;;;5011626;28;20447;-75
2021/11/20 05:55:10;;;;;;;70.30;32.08;;;11.20;67.40;;;;;;5011520;28;20397;-74
2021/11/20 05:57:35;;;;;;;65.90;32.85;;;11.20;65.70;;;;;;5028448;28;20727;-74
2021/11/20 06:00:05;;;;;;;65.00;31.90;;;11.20;65.00;;;;;;5013117;28;20401;-76
2021/11/20 06:02:30;;;;;;;65.93;32.07;;;11.20;64.30;;;;;;5012232;28;20401;-74
2021/11/20 06:04:56;;;;;;;65.87;31.40;;;11.30;64.00;;;;;;5012874;28;20393;-75
2021/11/20 06:07:23;;;;;;;58.40;29.83;;;11.30;64.10;;;;;;5012568;28;20412;-75
2021/11/20 06:09:48;;;;;;;63.40;31.95;;;11.20;64.40;;;;;;5011180;28;20392;-76
2021/11/20 06:12:14;;;;;;;66.90;30.80;;;11.20;65.60;;;;;;5011538;28;20849;-76
2021/11/20 06:14:39;;;;;;;55.87;30.10;;;11.20;66.20;;;;;;5012170;28;20515;-75
2021/11/20 06:17:05;;;;;;;67.72;31.88;;;11.20;66.80;;;;;;5026954;28;20404;-75
2021/11/20 06:19:31;;;;;;;63.03;32.80;;;11.20;66.90;;;;;;5013129;28;20399;-75
2021/11/20 06:21:57;;;;;;;67.78;32.63;;;11.20;66.90;;;;;;5020880;28;20476;-75
2021/11/20 06:24:22;;;;;;;57.08;30.58;;;11.20;65.60;;;;;;5022942;28;20407;-76
2021/11/20 06:26:50;;;;;;;61.58;31.52;;;11.20;65.10;;;;;;5030357;28;20416;-75
2021/11/20 06:29:16;;;;;;;60.03;31.90;;;11.20;64.60;;;;;;5026881;28;20388;-74
2021/11/20 06:31:42;;;;;;;65.28;30.83;;;11.20;63.60;;;;;;5020201;28;20393;-75
2021/11/20 06:34:08;;;;;;;61.90;30.90;;;11.20;62.70;;;;;;5010713;28;20408;-75
2021/11/20 06:36:34;;;;;;;66.53;32.67;;;11.30;62.20;;;;;;5012426;28;20480;-75
2021/11/20 06:39:00;;;;;;;57.45;30.02;;;11.30;62.50;;;;;;5015897;28;20384;-76
2021/11/20 06:41:26;;;;;;;58.95;30.50;;;11.30;60.90;;;;;;5016838;28;20442;-75
2021/11/20 06:43:52;;;;;;;63.97;30.83;;;11.40;59.00;;;;;;5014867;28;20805;-75
2021/11/20 06:46:19;;;;;;;51.05;29.20;;;11.40;59.20;;;;;;5009347;28;20398;-74
2021/11/20 06:48:45;;;;;;;56.78;29.75;;;11.40;58.40;;;;;;5008712;28;20412;-74
2021/11/20 06:51:12;;;;;;;59.10;30.85;;;11.40;58.40;;;;;;5011864;28;20846;-75
2021/11/20 06:53:39;;;;;;;57.90;30.38;;;11.40;57.70;;;;;;5010533;28;20539;-75
2021/11/20 06:56:05;;;;;;;57.93;30.97;;;11.50;57.20;;;;;;5011394;28;20547;-75
2021/11/20 07:01:05;;;;;;;58.92;30.55;;;11.50;57.40;;;;;;5010605;28;20497;-75
2021/11/20 07:03:42;;;;;;;58.42;31.63;;;11.50;58.70;;;;;;5006146;28;20402;-74
2021/11/20 07:06:33;;;;;;;67.05;31.63;;;11.50;57.80;;;;;;5007411;28;20570;-76
2021/11/20 07:08:59;;;;;;;65.07;32.38;;;11.50;57.80;;;;;;4998655;28;20417;-78
2021/11/20 07:11:25;;;;;;;60.50;31.40;;;11.50;58.40;;;;;;5011550;28;20762;-80
2021/11/20 07:13:52;;;;;;;69.10;32.83;;;11.40;59.10;;;;;;5011800;28;20432;-78
2021/11/20 07:16:19;;;;;;;59.83;30.23;;;11.50;59.00;;;;;;5018031;28;20426;-80
2021/11/20 07:18:45;;;;;;;67.25;33.67;;;11.40;59.50;;;;;;5017332;28;20415;-77
2021/11/20 07:21:11;;;;;;;62.78;32.58;;;11.40;59.60;;;;;;5011155;28;20423;-76
2021/11/20 07:23:37;;;;;;;63.75;31.52;;;11.50;59.40;;;;;;5010603;28;20403;-78
2021/11/20 07:26:06;;;;;;;59.92;31.02;;;11.50;59.60;;;;;;5009811;28;20409;-76
2021/11/20 07:28:31;;;;;;;64.68;31.33;;;11.50;58.90;;;;;;5013746;28;20420;-77
2021/11/20 07:30:57;;;;;;;62.67;30.98;;;11.50;59.10;;;;;;5022364;28;20397;-77
2021/11/20 07:33:24;;;;;;;58.75;30.40;;;11.40;59.40;;;;;;5015993;28;20840;-75
2021/11/20 07:35:53;;;;;;;62.10;31.20;;;11.40;60.00;;;;;;5014727;28;20416;-76
2021/11/20 07:38:24;;;;;;;65.78;31.42;;;11.40;59.80;;;;;;5010216;28;20516;-75
2021/11/20 07:40:50;;;;;;;63.67;31.50;;;11.60;57.90;;;;;;5005167;28;20408;-75
2021/11/20 07:43:16;;;;;;;65.45;31.25;;;11.60;58.10;;;;;;5010511;28;20413;-76
2021/11/20 07:45:42;;;;;;;66.50;31.60;;;11.60;58.20;;;;;;5005835;28;20462;-74
2021/11/20 07:48:14;;;;;;;62.37;30.37;;;11.50;58.50;;;;;;5009364;28;20492;-75
2021/11/20 07:50:44;;;;;;;66.80;30.77;;;11.50;58.40;;;;;;5006599;28;20459;-75
2021/11/20 07:53:10;;;;;;;54.08;29.40;;;11.60;58.20;;;;;;5009509;28;20443;-75
2021/11/20 07:55:35;;;;;;;56.85;29.40;;;11.60;58.40;;;;;;5002585;28;20440;-74
2021/11/20 07:58:03;;;;;;;60.20;30.10;;;11.60;56.60;;;;;;4997227;28;20401;-74
2021/11/20 08:00:29;;;;;;;60.72;31.27;;;11.60;56.80;;;;;;5011278;28;20410;-74
2021/11/20 08:02:55;;;;;;;59.85;30.65;;;11.60;57.00;;;;;;4998719;28;20409;-75
2021/11/20 08:05:25;;;;;;;62.28;30.73;;;11.60;57.80;;;;;;5005427;28;20838;-75
2021/11/20 08:07:51;;;;;;;57.85;30.35;;;11.60;54.90;;;;;;5023450;28;20456;-75
2021/11/20 08:10:17;;;;;;;62.53;29.47;;;11.70;55.00;;;;;;5006938;28;20498;-75
2021/11/20 08:12:43;;;;;;;58.07;30.13;;;11.70;54.10;;;;;;5007978;28;20400;-75
2021/11/20 08:15:09;;;;;;;61.08;30.75;;;11.70;54.80;;;;;;5012800;28;20413;-73
2021/11/20 08:17:35;;;;;;;60.90;29.30;;;11.70;54.10;;;;;;5000416;28;20770;-74
2021/11/20 08:20:01;;;;;;;62.97;31.43;;;11.80;53.50;;;;;;5007063;28;20408;-75
2021/11/20 08:22:26;;;;;;;55.00;28.90;;;11.80;53.40;;;;;;5009617;28;20400;-74
2021/11/20 08:24:52;;;;;;;55.75;29.55;;;11.80;53.70;;;;;;5010027;28;20388;-76
2021/11/20 08:27:18;;;;;;;56.30;30.03;;;11.70;53.80;;;;;;5010053;28;20909;-74
2021/11/20 08:29:44;;;;;;;57.17;29.67;;;11.70;54.50;;;;;;5022791;28;20400;-74
2021/11/20 08:32:10;;;;;;;65.72;30.48;;;11.70;54.30;;;;;;5007546;28;20393;-74
2021/11/20 08:34:37;;;;;;;58.92;29.35;;;11.90;52.70;;;;;;5012263;28;20393;-74
2021/11/20 08:37:04;;;;;;;54.25;29.20;;;11.90;52.70;;;;;;5003718;28;20399;-74
2021/11/20 08:39:32;;;;;;;53.03;28.17;;;11.80;53.40;;;;;;5029862;28;20408;-73
2021/11/20 08:41:58;;;;;;;56.08;29.35;;;12.00;51.20;;;;;;5012492;28;20420;-73
2021/11/20 08:44:24;;;;;;;55.95;29.15;;;12.00;52.10;;;;;;5011610;28;20411;-73
2021/11/20 08:46:50;;;;;;;61.83;29.80;;;12.10;50.50;;;;;;5011057;28;20416;-72
2021/11/20 08:49:17;;;;;;;53.65;30.38;;;12.10;50.20;;;;;;5006887;28;20401;-74
2021/11/20 08:51:45;;;;;;;58.80;31.25;;;12.00;50.90;;;;;;5011217;28;20396;-72
2021/11/20 08:54:11;;;;;;;59.63;29.80;;;12.00;52.20;;;;;;5007893;28;20403;-73
2021/11/20 08:56:39;;;;;;;63.40;30.02;;;12.00;50.60;;;;;;5012908;28;20458;-74
2021/11/20 08:59:08;;;;;;;58.00;30.92;;;12.00;51.40;;;;;;5008852;28;20404;-74
2021/11/20 09:01:45;;;;;;;61.20;32.13;;;12.00;51.90;;;;;;5013097;28;20397;-73
2021/11/20 09:04:35;;;;;;;61.08;31.75;;;12.00;51.40;;;;;;5013732;28;20388;-73
2021/11/20 09:07:10;;;;;;;64.90;32.40;;;12.10;51.10;;;;;;5010241;28;20416;-73
2021/11/20 09:09:39;;;;;;;63.20;30.98;;;12.10;50.70;;;;;;5008095;28;20400;-72
2021/11/20 09:12:20;;;;;;;59.83;30.85;;;12.20;50.50;;;;;;5013123;28;20757;-73
2021/11/20 09:14:46;;;;;;;56.97;31.03;;;12.20;50.20;;;;;;5013217;28;20717;-73
2021/11/20 09:17:14;;;;;;;62.57;30.30;;;12.20;49.10;;;;;;5012538;28;20424;-73
2021/11/20 09:19:41;;;;;;;57.87;29.70;;;12.20;49.50;;;;;;5011072;28;20476;-72
2021/11/20 09:22:07;;;;;;;59.13;32.08;;;12.20;49.20;;;;;;5011014;28;20400;-71
2021/11/20 09:24:36;;;;;;;57.20;29.58;;;12.30;49.70;;;;;;5012371;28;20463;-72
2021/11/20 09:27:02;;;;;;;63.33;30.05;;;12.30;49.00;;;;;;5010047;28;20444;-73
2021/11/20 09:29:29;;;;;;;60.28;31.13;;;12.30;47.90;;;;;;5011504;28;20397;-73
2021/11/20 09:31:54;;;;;;;53.53;28.77;;;12.30;48.40;;;;;;5012198;28;20393;-72
2021/11/20 09:34:21;;;;;;;59.15;30.10;;;12.30;48.30;;;;;;5012742;28;20408;-72
2021/11/20 09:36:50;;;;;;;52.17;29.10;;;12.30;47.70;;;;;;5011942;28;20444;-73
2021/11/20 09:39:18;;;;;;;52.63;28.77;;;12.40;47.10;;;;;;5012378;28;20400;-73
2021/11/20 09:42:08;;;;;;;59.30;29.15;;;12.50;46.00;;;;;;5010907;28;20404;-73
2021/11/20 09:44:39;;;;;;;51.50;28.27;;;12.40;46.20;;;;;;5001882;28;20392;-73
2021/11/20 09:47:29;;;;;;;52.90;27.60;;;12.40;46.20;;;;;;5020816;28;20416;-74
2021/11/20 09:50:01;;;;;;;55.05;28.65;;;12.40;46.40;;;;;;5009832;28;20550;-73
2021/11/20 09:52:27;;;;;;;54.78;27.70;;;12.30;47.20;;;;;;5022514;28;20424;-74
2021/11/20 09:54:53;;;;;;;49.60;26.73;;;12.50;45.00;;;;;;5020026;28;20392;-75
2021/11/20 09:57:38;;;;;;;47.10;25.58;;;12.50;45.60;;;;;;5021262;28;20409;-73
2021/11/20 10:00:10;;;;;;;53.97;27.90;;;12.50;45.80;;;;;;5013365;28;20404;-74
2021/11/20 10:02:53;;;;;;;47.55;25.58;;;12.40;46.30;;;;;;5013458;28;20463;-73
2021/11/20 10:05:27;;;;;;;48.63;26.45;;;12.50;44.80;;;;;;5012650;28;20404;-73
2021/11/20 10:08:20;;;;;;;44.38;26.35;;;12.60;44.10;;;;;;5012196;28;20492;-73
2021/11/20 10:10:57;;;;;;;45.42;25.67;;;12.60;44.10;;;;;;5013933;28;20862;-74
2021/11/20 10:13:29;;;;;;;40.97;23.85;;;12.50;44.30;;;;;;5011686;28;20397;-76
2021/11/20 10:16:13;;;;;;;44.97;25.60;;;12.50;43.80;;;;;;5012672;28;20800;-74
2021/11/20 10:18:49;;;;;;;41.75;23.50;;;12.60;44.50;;;;;;5011519;28;20492;-74
2021/11/20 10:21:32;;;;;;;42.30;24.85;;;12.50;43.90;;;;;;5012167;28;20436;-76
2021/11/20 10:24:07;;;;;;;45.60;25.23;;;12.50;44.20;;;;;;5010555;28;20450;-75
2021/11/20 10:26:55;;;;;;;45.10;23.85;;;12.60;43.50;;;;;;5017202;28;20975;-74
2021/11/20 10:29:36;;;;;;;45.13;24.60;;;12.60;43.20;;;;;;5012367;28;20431;-76
2021/11/20 10:32:09;;;;;;;45.45;24.80;;;12.60;44.00;;;;;;5008226;28;20397;-75
2021/11/20 10:34:57;;;;;;;42.97;23.20;;;12.60;42.90;;;;;;5007995;28;20393;-75
2021/11/20 10:37:26;;;;;;;40.10;23.00;;;12.60;43.60;;;;;;5010373;28;20419;-76
2021/11/20 10:39:59;;;;;;;40.25;23.83;;;12.50;43.40;;;;;;5011264;28;20550;-75
2021/11/20 10:42:50;;;;;;;36.83;22.38;;;12.50;43.10;;;;;;5011703;28;20408;-75
2021/11/20 10:45:30;;;;;;;36.40;22.80;;;12.60;43.40;;;;;;5010752;28;20400;-76
2021/11/20 10:47:57;;;;;;;37.30;21.67;;;12.60;42.20;;;;;;5013329;28;20404;-75
2021/11/20 10:50:45;;;;;;;38.60;23.60;;;12.70;41.70;;;;;;5011217;28;20415;-74
2021/11/20 10:53:50;;;;;;;40.83;23.25;;;12.60;42.00;;;;;;5012129;28;20809;-75
2021/11/20 10:56:52;;;;;;;40.00;22.23;;;12.70;42.40;;;;;;5011976;28;20797;-75
2021/11/20 10:59:44;;;;;;;42.83;22.80;;;12.60;41.70;;;;;;5013312;28;20409;-75
2021/11/20 11:02:22;;;;;;;38.42;21.77;;;12.80;41.50;;;;;;5011028;28;20428;-75
2021/11/20 11:05:21;;;;;;;34.92;21.33;;;12.80;40.90;;;;;;5013664;28;20408;-76
2021/11/20 11:08:05;;;;;;;38.65;21.83;;;12.80;40.90;;;;;;5011340;28;20412;-74
2021/11/20 11:10:40;;;;;;;34.78;21.58;;;12.70;41.00;;;;;;5012189;28;20408;-74
2021/11/20 11:13:19;;;;;;;36.83;21.90;;;12.70;40.30;;;;;;5011657;28;20399;-75
2021/11/20 11:16:00;;;;;;;39.45;21.10;;;12.70;40.40;;;;;;5011498;28;20939;-77
2021/11/20 11:18:44;;;;;;;38.47;21.42;;;12.70;40.70;;;;;;5013342;28;20409;-76
2021/11/20 11:21:22;;;;;;;31.60;19.45;;;12.60;40.50;;;;;;5014392;28;20387;-76
2021/11/20 11:24:10;;;;;;;32.70;20.27;;;12.70;39.70;;;;;;5009713;28;20401;-75
2021/11/20 11:26:55;;;;;;;31.08;19.77;;;12.80;39.80;;;;;;5012107;28;20425;-77
2021/11/20 11:29:36;;;;;;;33.53;19.73;;;12.70;40.20;;;;;;4991991;28;20772;-77
2021/11/20 11:32:03;;;;;;;34.20;18.58;;;12.70;39.90;;;;;;5010668;28;20392;-76
2021/11/20 11:34:44;;;;;;;31.35;19.35;;;12.60;39.50;;;;;;5011204;28;20821;-76
2021/11/20 11:37:36;;;;;;;30.02;18.85;;;12.70;39.30;;;;;;5009639;28;20403;-76
2021/11/20 11:40:24;;;;;;;32.45;19.77;;;12.70;39.60;;;;;;5010142;28;20397;-75
2021/11/20 11:43:12;;;;;;;29.70;18.50;;;12.70;39.40;;;;;;5022188;28;20404;-77
2021/11/20 11:46:01;;;;;;;30.27;19.00;;;12.70;39.50;;;;;;5010724;28;20499;-76
2021/11/20 11:49:01;;;;;;;33.75;19.33;;;12.60;39.70;;;;;;5000333;28;20413;-74
2021/11/20 11:51:54;;;;;;;34.08;20.50;;;12.60;40.10;;;;;;4979024;28;20401;-75
2021/11/20 11:54:49;;;;;;;33.73;19.33;;;12.70;40.60;;;;;;5010370;28;20904;-75
2021/11/20 11:57:15;;;;;;;31.95;19.30;;;12.80;39.00;;;;;;5011321;28;20510;-73
2021/11/20 11:59:58;;;;;;;36.00;19.70;;;12.80;38.60;;;;;;5012019;28;20396;-75
2021/11/20 12:02:36;;;;;;;30.33;19.02;;;12.60;39.40;;;;;;5005643;28;20819;-76
2021/11/20 12:05:28;;;;;;;29.38;18.98;;;12.60;39.60;;;;;;5005611;28;20428;-76
2021/11/20 12:08:19;;;;;;;29.80;18.17;;;12.60;39.60;;;;;;5012296;28;20442;-74
2021/11/20 12:10:50;;;;;;;33.80;19.88;;;12.50;39.70;;;;;;5015031;28;20416;-75
2021/11/20 12:13:28;;;;;;;36.88;21.65;;;12.40;40.80;;;;;;5016509;28;20436;-76
2021/11/20 12:16:23;;;;;;;34.07;20.07;;;12.30;41.50;;;;;;5013675;28;20405;-75
2021/11/20 12:19:01;;;;;;;33.10;19.17;;;12.30;41.00;;;;;;5012671;28;20462;-77
2021/11/20 12:21:43;;;;;;;34.08;19.40;;;12.40;40.10;;;;;;5016308;28;20388;-75
2021/11/20 12:24:18;;;;;;;32.53;19.33;;;12.30;40.50;;;;;;5016208;28;20728;-76
2021/11/20 12:26:47;;;;;;;30.80;19.73;;;12.30;40.90;;;;;;5017255;28;20409;-76
2021/11/20 12:29:16;;;;;;;39.60;20.83;;;12.20;40.90;;;;;;5018110;28;20407;-77
2021/11/20 12:31:55;;;;;;;34.10;20.27;;;12.30;40.40;;;;;;5016327;28;20385;-75
2021/11/20 12:34:41;;;;;;;34.77;21.27;;;12.30;41.10;;;;;;5017737;28;20523;-76
2021/11/20 12:37:22;;;;;;;34.60;20.95;;;12.20;41.60;;;;;;5016236;28;20390;-76
2021/11/20 12:40:11;;;;;;;35.78;19.80;;;12.20;41.90;;;;;;5013709;28;20408;-77
2021/11/20 12:43:02;;;;;;;29.27;19.10;;;12.10;41.10;;;;;;5012876;28;20405;-77
2021/11/20 12:45:42;;;;;;;37.72;20.20;;;12.20;41.10;;;;;;5018376;28;20894;-77
2021/11/20 12:48:50;;;;;;;37.13;20.43;;;12.10;42.30;;;;;;5030982;28;20413;-75
2021/11/20 12:51:56;;;;;;;32.25;19.00;;;12.00;42.60;;;;;;5013960;28;20427;-74
2021/11/20 12:55:06;;;;;;;34.80;19.92;;;12.10;42.20;;;;;;5012626;28;20397;-76